Huvudsida
METAR-TAF:

METAR-TAF

Flygplatser :

Mosjøens flygplats. Kjærstad

Mosjøen, Norge

latitud: 65-48N, longitud: 013-08E, höjd: 70 m

Aktuellt väderrapport

Denna rapport gjordes för 10 minuter sedan, klockan 11:50 UTC
Vind 8 kt från syd
Temperatur 17°C
Fuktighet 77%
Tryck 1005 hPa
Sikt 10 km eller mer
Få moln på en höjd av 2800 ft
Spridda moln på en höjd av 3800 ft
Brutna moln på en höjd av 6500 ft
lätt regn

METAR: ENMS 161150Z 19008KT 9999 -RA FEW028 SCT038 BKN065 17/13 Q1005 RMK WIND 412FT 19006KT 140V250

Tid: 14:00 (12:00 UTC)


TAF: saknas

Aktuella väderrapporter och prognoser från 4000 flygplatser (METAR- och TAF-rapporter).

De tillgängliga stationerna syns som gula och röda prickar på kartan.

För musen över prickarna för att se namnen på stationerna.

Klicka sedan för att få väderrapporter och prognoser.

För att ändra kartan: Klicka på de gröna knapparna med ett svart kors på för att zooma in; den gröna knappen med ett streck på för att zooma ut; eller på de gröna pilarna för angränsande kartor.


METAR-TAF: